sensor_id;sensor_type;location;lat;lon;timestamp;P1;durP1;ratioP1;P2;durP2;ratioP2
1987;SDS011;12775;46.994;15.498;2024-01-11T00:02:03;32.36;;;21.70;;
1987;SDS011;12775;46.994;15.498;2024-01-11T00:04:30;33.74;;;22.70;;
1987;SDS011;12775;46.994;15.498;2024-01-11T00:06:56;36.70;;;22.28;;
1987;SDS011;12775;46.994;15.498;2024-01-11T00:09:23;30.28;;;22.04;;
1987;SDS011;12775;46.994;15.498;2024-01-11T00:11:50;31.70;;;22.06;;
1987;SDS011;12775;46.994;15.498;2024-01-11T00:14:17;30.54;;;21.64;;
1987;SDS011;12775;46.994;15.498;2024-01-11T00:16:45;32.92;;;21.96;;
1987;SDS011;12775;46.994;15.498;2024-01-11T00:19:12;29.44;;;22.04;;
1987;SDS011;12775;46.994;15.498;2024-01-11T00:21:38;32.26;;;21.32;;
1987;SDS011;12775;46.994;15.498;2024-01-11T00:24:05;26.58;;;20.00;;
1987;SDS011;12775;46.994;15.498;2024-01-11T00:26:32;31.14;;;22.66;;
1987;SDS011;12775;46.994;15.498;2024-01-11T00:28:59;35.24;;;21.90;;
1987;SDS011;12775;46.994;15.498;2024-01-11T00:31:26;30.60;;;22.00;;
1987;SDS011;12775;46.994;15.498;2024-01-11T00:33:52;31.58;;;22.48;;
1987;SDS011;12775;46.994;15.498;2024-01-11T00:36:19;25.90;;;19.68;;
1987;SDS011;12775;46.994;15.498;2024-01-11T00:38:45;32.10;;;23.52;;
1987;SDS011;12775;46.994;15.498;2024-01-11T00:41:12;35.04;;;21.26;;
1987;SDS011;12775;46.994;15.498;2024-01-11T00:43:39;29.92;;;20.12;;
1987;SDS011;12775;46.994;15.498;2024-01-11T00:46:07;34.30;;;20.68;;
1987;SDS011;12775;46.994;15.498;2024-01-11T00:48:34;32.36;;;22.40;;
1987;SDS011;12775;46.994;15.498;2024-01-11T00:51:03;31.42;;;20.90;;
1987;SDS011;12775;46.994;15.498;2024-01-11T00:53:28;26.54;;;19.22;;
1987;SDS011;12775;46.994;15.498;2024-01-11T00:55:55;29.02;;;19.96;;
1987;SDS011;12775;46.994;15.498;2024-01-11T00:58:22;33.18;;;21.90;;
1987;SDS011;12775;46.994;15.498;2024-01-11T01:00:48;32.40;;;22.30;;
1987;SDS011;12775;46.994;15.498;2024-01-11T01:03:15;37.42;;;22.98;;
1987;SDS011;12775;46.994;15.498;2024-01-11T01:05:42;32.92;;;21.60;;
1987;SDS011;12775;46.994;15.498;2024-01-11T01:08:09;34.80;;;22.82;;
1987;SDS011;12775;46.994;15.498;2024-01-11T01:10:36;33.34;;;20.86;;
1987;SDS011;12775;46.994;15.498;2024-01-11T01:13:03;32.90;;;22.14;;
1987;SDS011;12775;46.994;15.498;2024-01-11T01:15:30;37.86;;;24.02;;
1987;SDS011;12775;46.994;15.498;2024-01-11T01:17:57;32.32;;;21.70;;
1987;SDS011;12775;46.994;15.498;2024-01-11T01:20:23;29.46;;;22.14;;
1987;SDS011;12775;46.994;15.498;2024-01-11T01:22:50;27.70;;;20.58;;
1987;SDS011;12775;46.994;15.498;2024-01-11T01:25:17;35.20;;;22.26;;
1987;SDS011;12775;46.994;15.498;2024-01-11T01:27:44;38.48;;;22.84;;
1987;SDS011;12775;46.994;15.498;2024-01-11T01:30:11;32.90;;;22.90;;
1987;SDS011;12775;46.994;15.498;2024-01-11T01:32:37;32.30;;;21.70;;
1987;SDS011;12775;46.994;15.498;2024-01-11T01:35:04;27.04;;;19.46;;
1987;SDS011;12775;46.994;15.498;2024-01-11T01:37:30;32.98;;;23.00;;
1987;SDS011;12775;46.994;15.498;2024-01-11T01:39:58;32.84;;;22.08;;
1987;SDS011;12775;46.994;15.498;2024-01-11T01:42:24;29.80;;;21.48;;
1987;SDS011;12775;46.994;15.498;2024-01-11T01:44:51;25.14;;;19.70;;
1987;SDS011;12775;46.994;15.498;2024-01-11T01:47:18;38.58;;;22.60;;
1987;SDS011;12775;46.994;15.498;2024-01-11T01:49:45;35.34;;;22.44;;
1987;SDS011;12775;46.994;15.498;2024-01-11T01:52:12;31.22;;;21.42;;
1987;SDS011;12775;46.994;15.498;2024-01-11T01:54:40;29.44;;;20.22;;
1987;SDS011;12775;46.994;15.498;2024-01-11T01:57:07;35.46;;;24.74;;
1987;SDS011;12775;46.994;15.498;2024-01-11T01:59:34;34.38;;;22.10;;
1987;SDS011;12775;46.994;15.498;2024-01-11T02:02:00;29.46;;;21.50;;
1987;SDS011;12775;46.994;15.498;2024-01-11T02:04:27;38.28;;;24.78;;
1987;SDS011;12775;46.994;15.498;2024-01-11T02:06:55;33.28;;;22.76;;
1987;SDS011;12775;46.994;15.498;2024-01-11T02:09:21;28.32;;;20.70;;
1987;SDS011;12775;46.994;15.498;2024-01-11T02:11:47;31.76;;;22.76;;
1987;SDS011;12775;46.994;15.498;2024-01-11T02:14:14;27.60;;;19.72;;
1987;SDS011;12775;46.994;15.498;2024-01-11T02:16:41;31.24;;;20.36;;
1987;SDS011;12775;46.994;15.498;2024-01-11T02:19:08;31.14;;;20.66;;
1987;SDS011;12775;46.994;15.498;2024-01-11T02:21:35;32.90;;;21.02;;
1987;SDS011;12775;46.994;15.498;2024-01-11T02:24:03;31.64;;;20.24;;
1987;SDS011;12775;46.994;15.498;2024-01-11T02:26:29;39.30;;;22.82;;
1987;SDS011;12775;46.994;15.498;2024-01-11T02:28:56;33.94;;;21.56;;
1987;SDS011;12775;46.994;15.498;2024-01-11T02:31:24;38.42;;;23.36;;
1987;SDS011;12775;46.994;15.498;2024-01-11T02:33:52;32.02;;;21.42;;
1987;SDS011;12775;46.994;15.498;2024-01-11T02:36:19;30.66;;;21.04;;
1987;SDS011;12775;46.994;15.498;2024-01-11T02:38:45;37.82;;;22.72;;
1987;SDS011;12775;46.994;15.498;2024-01-11T02:41:11;32.54;;;21.14;;
1987;SDS011;12775;46.994;15.498;2024-01-11T02:43:38;34.62;;;20.90;;
1987;SDS011;12775;46.994;15.498;2024-01-11T02:46:05;31.30;;;20.94;;
1987;SDS011;12775;46.994;15.498;2024-01-11T02:48:32;34.74;;;21.32;;
1987;SDS011;12775;46.994;15.498;2024-01-11T02:50:59;36.20;;;23.08;;
1987;SDS011;12775;46.994;15.498;2024-01-11T02:53:25;38.72;;;24.44;;
1987;SDS011;12775;46.994;15.498;2024-01-11T02:55:52;38.94;;;23.88;;
1987;SDS011;12775;46.994;15.498;2024-01-11T02:58:18;39.54;;;26.38;;
1987;SDS011;12775;46.994;15.498;2024-01-11T03:00:45;40.76;;;25.98;;
1987;SDS011;12775;46.994;15.498;2024-01-11T03:03:12;31.56;;;22.16;;
1987;SDS011;12775;46.994;15.498;2024-01-11T03:05:38;34.76;;;21.08;;
1987;SDS011;12775;46.994;15.498;2024-01-11T03:08:05;33.10;;;22.76;;
1987;SDS011;12775;46.994;15.498;2024-01-11T03:10:31;33.34;;;21.48;;
1987;SDS011;12775;46.994;15.498;2024-01-11T03:12:58;36.78;;;23.94;;
1987;SDS011;12775;46.994;15.498;2024-01-11T03:15:25;44.94;;;26.08;;
1987;SDS011;12775;46.994;15.498;2024-01-11T03:17:52;32.22;;;21.90;;
1987;SDS011;12775;46.994;15.498;2024-01-11T03:20:18;35.54;;;23.38;;
1987;SDS011;12775;46.994;15.498;2024-01-11T03:22:46;40.22;;;23.90;;
1987;SDS011;12775;46.994;15.498;2024-01-11T03:25:12;30.46;;;22.50;;
1987;SDS011;12775;46.994;15.498;2024-01-11T03:27:39;35.28;;;22.66;;
1987;SDS011;12775;46.994;15.498;2024-01-11T03:30:07;33.10;;;22.32;;
1987;SDS011;12775;46.994;15.498;2024-01-11T03:32:33;33.30;;;23.88;;
1987;SDS011;12775;46.994;15.498;2024-01-11T03:35:00;34.36;;;21.48;;
1987;SDS011;12775;46.994;15.498;2024-01-11T03:37:27;38.38;;;22.70;;
1987;SDS011;12775;46.994;15.498;2024-01-11T03:39:53;38.22;;;22.88;;
1987;SDS011;12775;46.994;15.498;2024-01-11T03:42:21;32.26;;;21.00;;
1987;SDS011;12775;46.994;15.498;2024-01-11T03:44:47;34.64;;;22.92;;
1987;SDS011;12775;46.994;15.498;2024-01-11T03:47:14;27.10;;;19.72;;
1987;SDS011;12775;46.994;15.498;2024-01-11T03:49:41;30.80;;;21.70;;
1987;SDS011;12775;46.994;15.498;2024-01-11T03:52:09;33.40;;;21.96;;
1987;SDS011;12775;46.994;15.498;2024-01-11T03:54:36;31.32;;;21.22;;
1987;SDS011;12775;46.994;15.498;2024-01-11T03:57:03;30.84;;;20.92;;
1987;SDS011;12775;46.994;15.498;2024-01-11T03:59:29;32.48;;;22.58;;
1987;SDS011;12775;46.994;15.498;2024-01-11T04:01:57;35.30;;;21.46;;
1987;SDS011;12775;46.994;15.498;2024-01-11T04:04:23;33.08;;;21.52;;
1987;SDS011;12775;46.994;15.498;2024-01-11T04:06:50;35.18;;;21.94;;
1987;SDS011;12775;46.994;15.498;2024-01-11T04:09:17;32.72;;;21.96;;
1987;SDS011;12775;46.994;15.498;2024-01-11T04:11:43;35.52;;;23.14;;
1987;SDS011;12775;46.994;15.498;2024-01-11T04:14:10;31.62;;;21.52;;
1987;SDS011;12775;46.994;15.498;2024-01-11T04:16:40;30.60;;;21.32;;
1987;SDS011;12775;46.994;15.498;2024-01-11T04:19:07;41.40;;;22.36;;
1987;SDS011;12775;46.994;15.498;2024-01-11T04:21:33;34.84;;;21.28;;
1987;SDS011;12775;46.994;15.498;2024-01-11T04:24:00;34.88;;;22.68;;
1987;SDS011;12775;46.994;15.498;2024-01-11T04:26:26;35.32;;;21.54;;
1987;SDS011;12775;46.994;15.498;2024-01-11T04:28:54;34.12;;;23.18;;
1987;SDS011;12775;46.994;15.498;2024-01-11T04:31:21;33.08;;;20.72;;
1987;SDS011;12775;46.994;15.498;2024-01-11T04:33:48;35.00;;;21.80;;
1987;SDS011;12775;46.994;15.498;2024-01-11T04:36:14;34.90;;;21.16;;
1987;SDS011;12775;46.994;15.498;2024-01-11T04:38:41;34.38;;;21.48;;
1987;SDS011;12775;46.994;15.498;2024-01-11T04:41:09;34.00;;;20.72;;
1987;SDS011;12775;46.994;15.498;2024-01-11T04:43:42;29.94;;;19.94;;
1987;SDS011;12775;46.994;15.498;2024-01-11T04:46:14;29.38;;;20.94;;
1987;SDS011;12775;46.994;15.498;2024-01-11T04:48:40;32.90;;;20.84;;
1987;SDS011;12775;46.994;15.498;2024-01-11T04:51:08;30.20;;;18.02;;
1987;SDS011;12775;46.994;15.498;2024-01-11T04:53:37;30.94;;;20.42;;
1987;SDS011;12775;46.994;15.498;2024-01-11T04:56:03;35.56;;;23.12;;
1987;SDS011;12775;46.994;15.498;2024-01-11T04:58:30;29.28;;;20.32;;
1987;SDS011;12775;46.994;15.498;2024-01-11T05:00:57;28.96;;;20.62;;
1987;SDS011;12775;46.994;15.498;2024-01-11T05:03:23;32.94;;;20.36;;
1987;SDS011;12775;46.994;15.498;2024-01-11T05:05:50;29.52;;;20.36;;
1987;SDS011;12775;46.994;15.498;2024-01-11T05:08:17;36.56;;;21.10;;
1987;SDS011;12775;46.994;15.498;2024-01-11T05:10:44;29.74;;;19.78;;
1987;SDS011;12775;46.994;15.498;2024-01-11T05:13:11;28.98;;;19.22;;
1987;SDS011;12775;46.994;15.498;2024-01-11T05:15:39;29.80;;;20.36;;
1987;SDS011;12775;46.994;15.498;2024-01-11T05:18:06;28.06;;;20.08;;
1987;SDS011;12775;46.994;15.498;2024-01-11T05:20:33;34.56;;;21.70;;
1987;SDS011;12775;46.994;15.498;2024-01-11T05:23:01;31.40;;;19.56;;
1987;SDS011;12775;46.994;15.498;2024-01-11T05:25:29;36.56;;;19.56;;
1987;SDS011;12775;46.994;15.498;2024-01-11T05:27:55;37.14;;;21.70;;
1987;SDS011;12775;46.994;15.498;2024-01-11T05:30:23;34.66;;;22.02;;
1987;SDS011;12775;46.994;15.498;2024-01-11T05:32:50;33.90;;;21.20;;
1987;SDS011;12775;46.994;15.498;2024-01-11T05:35:18;27.76;;;19.92;;
1987;SDS011;12775;46.994;15.498;2024-01-11T05:37:44;34.70;;;22.66;;
1987;SDS011;12775;46.994;15.498;2024-01-11T05:40:11;31.84;;;20.90;;
1987;SDS011;12775;46.994;15.498;2024-01-11T05:42:38;31.68;;;21.70;;
1987;SDS011;12775;46.994;15.498;2024-01-11T05:45:05;32.98;;;21.46;;
1987;SDS011;12775;46.994;15.498;2024-01-11T05:47:32;27.18;;;19.06;;
1987;SDS011;12775;46.994;15.498;2024-01-11T05:49:58;29.34;;;20.32;;
1987;SDS011;12775;46.994;15.498;2024-01-11T05:52:25;26.06;;;19.84;;
1987;SDS011;12775;46.994;15.498;2024-01-11T05:54:52;34.88;;;21.20;;
1987;SDS011;12775;46.994;15.498;2024-01-11T05:57:18;28.28;;;19.32;;
1987;SDS011;12775;46.994;15.498;2024-01-11T05:59:46;34.32;;;20.20;;
1987;SDS011;12775;46.994;15.498;2024-01-11T06:02:12;32.98;;;20.54;;
1987;SDS011;12775;46.994;15.498;2024-01-11T06:04:39;34.30;;;20.80;;
1987;SDS011;12775;46.994;15.498;2024-01-11T06:07:06;34.86;;;21.52;;
1987;SDS011;12775;46.994;15.498;2024-01-11T06:09:34;31.78;;;21.56;;
1987;SDS011;12775;46.994;15.498;2024-01-11T06:12:01;33.78;;;21.84;;
1987;SDS011;12775;46.994;15.498;2024-01-11T06:14:28;128.16;;;85.10;;
1987;SDS011;12775;46.994;15.498;2024-01-11T06:16:56;38.06;;;29.24;;
1987;SDS011;12775;46.994;15.498;2024-01-11T06:19:23;38.14;;;24.30;;
1987;SDS011;12775;46.994;15.498;2024-01-11T06:21:50;42.06;;;24.62;;
1987;SDS011;12775;46.994;15.498;2024-01-11T06:24:18;39.84;;;23.36;;
1987;SDS011;12775;46.994;15.498;2024-01-11T06:26:45;35.14;;;22.98;;
1987;SDS011;12775;46.994;15.498;2024-01-11T06:29:13;30.16;;;21.58;;
1987;SDS011;12775;46.994;15.498;2024-01-11T06:31:40;43.66;;;21.84;;
1987;SDS011;12775;46.994;15.498;2024-01-11T06:34:07;29.36;;;22.84;;
1987;SDS011;12775;46.994;15.498;2024-01-11T06:36:35;31.32;;;21.46;;
1987;SDS011;12775;46.994;15.498;2024-01-11T06:39:02;29.08;;;21.28;;
1987;SDS011;12775;46.994;15.498;2024-01-11T06:41:29;29.56;;;21.48;;
1987;SDS011;12775;46.994;15.498;2024-01-11T06:43:56;32.64;;;22.12;;
1987;SDS011;12775;46.994;15.498;2024-01-11T06:46:23;30.44;;;21.78;;
1987;SDS011;12775;46.994;15.498;2024-01-11T06:48:51;33.34;;;21.58;;
1987;SDS011;12775;46.994;15.498;2024-01-11T06:51:20;31.04;;;21.66;;
1987;SDS011;12775;46.994;15.498;2024-01-11T06:53:48;38.96;;;22.12;;
1987;SDS011;12775;46.994;15.498;2024-01-11T06:56:16;35.38;;;22.50;;
1987;SDS011;12775;46.994;15.498;2024-01-11T06:58:43;31.86;;;21.86;;
1987;SDS011;12775;46.994;15.498;2024-01-11T07:01:10;38.42;;;24.34;;
1987;SDS011;12775;46.994;15.498;2024-01-11T07:03:38;35.52;;;22.86;;
1987;SDS011;12775;46.994;15.498;2024-01-11T07:06:05;36.44;;;22.88;;
1987;SDS011;12775;46.994;15.498;2024-01-11T07:08:34;32.18;;;22.18;;
1987;SDS011;12775;46.994;15.498;2024-01-11T07:11:01;36.98;;;26.74;;
1987;SDS011;12775;46.994;15.498;2024-01-11T07:13:29;41.86;;;27.58;;
1987;SDS011;12775;46.994;15.498;2024-01-11T07:15:57;57.22;;;35.92;;
1987;SDS011;12775;46.994;15.498;2024-01-11T07:18:24;44.64;;;31.60;;
1987;SDS011;12775;46.994;15.498;2024-01-11T07:20:52;55.02;;;34.44;;
1987;SDS011;12775;46.994;15.498;2024-01-11T07:23:18;55.22;;;34.36;;
1987;SDS011;12775;46.994;15.498;2024-01-11T07:25:44;46.50;;;30.86;;
1987;SDS011;12775;46.994;15.498;2024-01-11T07:28:11;52.18;;;27.76;;
1987;SDS011;12775;46.994;15.498;2024-01-11T07:30:38;39.66;;;28.96;;
1987;SDS011;12775;46.994;15.498;2024-01-11T07:33:06;36.08;;;24.76;;
1987;SDS011;12775;46.994;15.498;2024-01-11T07:35:33;50.18;;;33.44;;
1987;SDS011;12775;46.994;15.498;2024-01-11T07:38:00;46.28;;;30.36;;
1987;SDS011;12775;46.994;15.498;2024-01-11T07:40:27;41.16;;;27.02;;
1987;SDS011;12775;46.994;15.498;2024-01-11T07:42:55;50.50;;;29.28;;
1987;SDS011;12775;46.994;15.498;2024-01-11T07:45:22;41.20;;;25.66;;
1987;SDS011;12775;46.994;15.498;2024-01-11T07:47:49;42.40;;;29.78;;
1987;SDS011;12775;46.994;15.498;2024-01-11T07:50:17;41.52;;;27.48;;
1987;SDS011;12775;46.994;15.498;2024-01-11T07:52:44;38.68;;;27.10;;
1987;SDS011;12775;46.994;15.498;2024-01-11T07:55:11;47.84;;;27.06;;
1987;SDS011;12775;46.994;15.498;2024-01-11T07:57:39;34.26;;;25.26;;
1987;SDS011;12775;46.994;15.498;2024-01-11T08:00:06;39.90;;;25.90;;
1987;SDS011;12775;46.994;15.498;2024-01-11T08:02:33;36.72;;;25.50;;
1987;SDS011;12775;46.994;15.498;2024-01-11T08:05:01;37.98;;;26.32;;
1987;SDS011;12775;46.994;15.498;2024-01-11T08:07:28;33.24;;;23.86;;
1987;SDS011;12775;46.994;15.498;2024-01-11T08:09:55;35.96;;;23.04;;
1987;SDS011;12775;46.994;15.498;2024-01-11T08:12:24;40.06;;;22.50;;
1987;SDS011;12775;46.994;15.498;2024-01-11T08:14:51;46.46;;;23.68;;
1987;SDS011;12775;46.994;15.498;2024-01-11T08:17:19;33.28;;;24.34;;
1987;SDS011;12775;46.994;15.498;2024-01-11T08:19:46;38.46;;;22.86;;
1987;SDS011;12775;46.994;15.498;2024-01-11T08:22:13;35.82;;;22.10;;
1987;SDS011;12775;46.994;15.498;2024-01-11T08:24:42;40.36;;;23.40;;
1987;SDS011;12775;46.994;15.498;2024-01-11T08:27:09;42.68;;;24.24;;
1987;SDS011;12775;46.994;15.498;2024-01-11T08:29:36;33.50;;;23.60;;
1987;SDS011;12775;46.994;15.498;2024-01-11T08:32:04;44.58;;;23.32;;
1987;SDS011;12775;46.994;15.498;2024-01-11T08:34:31;31.78;;;21.68;;
1987;SDS011;12775;46.994;15.498;2024-01-11T08:36:58;37.92;;;25.04;;
1987;SDS011;12775;46.994;15.498;2024-01-11T08:39:26;41.42;;;24.40;;
1987;SDS011;12775;46.994;15.498;2024-01-11T08:41:53;35.46;;;23.58;;
1987;SDS011;12775;46.994;15.498;2024-01-11T08:44:20;41.18;;;25.94;;
1987;SDS011;12775;46.994;15.498;2024-01-11T08:46:48;41.82;;;26.40;;
1987;SDS011;12775;46.994;15.498;2024-01-11T08:49:14;38.54;;;25.82;;
1987;SDS011;12775;46.994;15.498;2024-01-11T08:51:41;37.76;;;24.76;;
1987;SDS011;12775;46.994;15.498;2024-01-11T08:54:08;34.20;;;23.84;;
1987;SDS011;12775;46.994;15.498;2024-01-11T08:56:36;40.70;;;27.98;;
1987;SDS011;12775;46.994;15.498;2024-01-11T08:59:03;31.88;;;22.60;;
1987;SDS011;12775;46.994;15.498;2024-01-11T09:01:30;33.44;;;24.46;;
1987;SDS011;12775;46.994;15.498;2024-01-11T09:03:58;36.12;;;23.40;;
1987;SDS011;12775;46.994;15.498;2024-01-11T09:06:25;31.44;;;23.32;;
1987;SDS011;12775;46.994;15.498;2024-01-11T09:08:53;29.56;;;22.52;;
1987;SDS011;12775;46.994;15.498;2024-01-11T09:11:20;33.54;;;21.98;;
1987;SDS011;12775;46.994;15.498;2024-01-11T09:13:47;33.64;;;23.72;;
1987;SDS011;12775;46.994;15.498;2024-01-11T09:16:15;35.14;;;22.46;;
1987;SDS011;12775;46.994;15.498;2024-01-11T09:18:43;33.62;;;22.34;;
1987;SDS011;12775;46.994;15.498;2024-01-11T09:21:10;33.36;;;21.50;;
1987;SDS011;12775;46.994;15.498;2024-01-11T09:23:37;31.00;;;21.58;;
1987;SDS011;12775;46.994;15.498;2024-01-11T09:26:04;33.08;;;22.08;;
1987;SDS011;12775;46.994;15.498;2024-01-11T09:28:31;32.02;;;22.60;;
1987;SDS011;12775;46.994;15.498;2024-01-11T09:30:59;35.56;;;24.14;;
1987;SDS011;12775;46.994;15.498;2024-01-11T09:33:26;32.32;;;22.76;;
1987;SDS011;12775;46.994;15.498;2024-01-11T09:35:54;33.42;;;24.14;;
1987;SDS011;12775;46.994;15.498;2024-01-11T09:38:21;32.92;;;22.26;;
1987;SDS011;12775;46.994;15.498;2024-01-11T09:40:51;33.64;;;23.98;;
1987;SDS011;12775;46.994;15.498;2024-01-11T09:43:17;31.60;;;21.12;;
1987;SDS011;12775;46.994;15.498;2024-01-11T09:45:44;31.74;;;22.42;;
1987;SDS011;12775;46.994;15.498;2024-01-11T09:48:11;32.14;;;20.82;;
1987;SDS011;12775;46.994;15.498;2024-01-11T09:50:39;29.86;;;21.20;;
1987;SDS011;12775;46.994;15.498;2024-01-11T09:53:06;32.10;;;21.42;;
1987;SDS011;12775;46.994;15.498;2024-01-11T09:55:33;30.54;;;22.24;;
1987;SDS011;12775;46.994;15.498;2024-01-11T09:58:01;32.06;;;23.52;;
1987;SDS011;12775;46.994;15.498;2024-01-11T10:00:28;31.08;;;20.90;;
1987;SDS011;12775;46.994;15.498;2024-01-11T10:02:55;38.18;;;23.12;;
1987;SDS011;12775;46.994;15.498;2024-01-11T10:05:23;32.42;;;21.02;;
1987;SDS011;12775;46.994;15.498;2024-01-11T10:07:50;29.02;;;21.80;;
1987;SDS011;12775;46.994;15.498;2024-01-11T10:10:18;29.02;;;21.84;;
1987;SDS011;12775;46.994;15.498;2024-01-11T10:12:45;31.92;;;23.08;;
1987;SDS011;12775;46.994;15.498;2024-01-11T10:15:12;29.66;;;20.48;;
1987;SDS011;12775;46.994;15.498;2024-01-11T10:17:41;25.22;;;18.92;;
1987;SDS011;12775;46.994;15.498;2024-01-11T10:20:10;28.96;;;21.18;;
1987;SDS011;12775;46.994;15.498;2024-01-11T10:22:36;31.22;;;21.60;;
1987;SDS011;12775;46.994;15.498;2024-01-11T10:25:10;28.10;;;18.90;;
1987;SDS011;12775;46.994;15.498;2024-01-11T10:27:40;29.64;;;20.06;;
1987;SDS011;12775;46.994;15.498;2024-01-11T10:30:07;32.70;;;22.40;;
1987;SDS011;12775;46.994;15.498;2024-01-11T10:32:35;30.42;;;20.72;;
1987;SDS011;12775;46.994;15.498;2024-01-11T10:35:03;30.78;;;20.36;;
1987;SDS011;12775;46.994;15.498;2024-01-11T10:37:30;27.60;;;19.80;;
1987;SDS011;12775;46.994;15.498;2024-01-11T10:39:57;23.08;;;16.64;;
1987;SDS011;12775;46.994;15.498;2024-01-11T10:42:24;21.36;;;16.22;;
1987;SDS011;12775;46.994;15.498;2024-01-11T10:44:50;22.40;;;16.72;;
1987;SDS011;12775;46.994;15.498;2024-01-11T10:47:18;25.98;;;18.44;;
1987;SDS011;12775;46.994;15.498;2024-01-11T10:49:45;23.74;;;17.58;;
1987;SDS011;12775;46.994;15.498;2024-01-11T10:52:13;21.26;;;16.42;;
1987;SDS011;12775;46.994;15.498;2024-01-11T10:54:40;21.98;;;16.08;;
1987;SDS011;12775;46.994;15.498;2024-01-11T10:57:07;26.86;;;17.54;;
1987;SDS011;12775;46.994;15.498;2024-01-11T10:59:35;23.48;;;17.98;;
1987;SDS011;12775;46.994;15.498;2024-01-11T11:02:04;22.10;;;16.90;;
1987;SDS011;12775;46.994;15.498;2024-01-11T11:04:30;20.50;;;15.86;;
1987;SDS011;12775;46.994;15.498;2024-01-11T11:06:57;21.30;;;15.80;;
1987;SDS011;12775;46.994;15.498;2024-01-11T11:09:24;20.18;;;15.68;;
1987;SDS011;12775;46.994;15.498;2024-01-11T11:11:53;20.72;;;15.28;;
1987;SDS011;12775;46.994;15.498;2024-01-11T11:14:23;20.54;;;14.18;;
1987;SDS011;12775;46.994;15.498;2024-01-11T11:16:50;15.46;;;13.68;;
1987;SDS011;12775;46.994;15.498;2024-01-11T11:19:19;17.26;;;13.42;;
1987;SDS011;12775;46.994;15.498;2024-01-11T11:21:47;25.78;;;16.18;;
1987;SDS011;12775;46.994;15.498;2024-01-11T11:24:13;18.44;;;15.66;;
1987;SDS011;12775;46.994;15.498;2024-01-11T11:26:40;22.12;;;14.08;;
1987;SDS011;12775;46.994;15.498;2024-01-11T11:29:07;19.86;;;14.72;;
1987;SDS011;12775;46.994;15.498;2024-01-11T11:31:35;17.38;;;14.02;;
1987;SDS011;12775;46.994;15.498;2024-01-11T11:34:05;15.42;;;11.58;;
1987;SDS011;12775;46.994;15.498;2024-01-11T11:36:32;18.16;;;12.68;;
1987;SDS011;12775;46.994;15.498;2024-01-11T11:39:01;16.20;;;12.66;;
1987;SDS011;12775;46.994;15.498;2024-01-11T11:41:29;18.58;;;14.46;;
1987;SDS011;12775;46.994;15.498;2024-01-11T11:43:55;18.86;;;15.42;;
1987;SDS011;12775;46.994;15.498;2024-01-11T11:46:22;16.12;;;14.04;;
1987;SDS011;12775;46.994;15.498;2024-01-11T11:48:50;19.34;;;13.52;;
1987;SDS011;12775;46.994;15.498;2024-01-11T11:51:18;17.18;;;14.28;;
1987;SDS011;12775;46.994;15.498;2024-01-11T11:53:45;15.88;;;12.78;;
1987;SDS011;12775;46.994;15.498;2024-01-11T11:56:12;17.46;;;14.42;;
1987;SDS011;12775;46.994;15.498;2024-01-11T11:58:38;13.00;;;10.66;;
1987;SDS011;12775;46.994;15.498;2024-01-11T12:01:06;15.38;;;12.12;;
1987;SDS011;12775;46.994;15.498;2024-01-11T12:03:35;14.38;;;12.92;;
1987;SDS011;12775;46.994;15.498;2024-01-11T12:06:03;16.70;;;11.82;;
1987;SDS011;12775;46.994;15.498;2024-01-11T12:08:31;16.18;;;11.72;;
1987;SDS011;12775;46.994;15.498;2024-01-11T12:10:58;17.10;;;12.94;;
1987;SDS011;12775;46.994;15.498;2024-01-11T12:13:25;18.44;;;13.18;;
1987;SDS011;12775;46.994;15.498;2024-01-11T12:15:53;14.76;;;11.52;;
1987;SDS011;12775;46.994;15.498;2024-01-11T12:18:20;15.40;;;11.52;;
1987;SDS011;12775;46.994;15.498;2024-01-11T12:20:47;16.70;;;12.76;;
1987;SDS011;12775;46.994;15.498;2024-01-11T12:23:14;14.56;;;11.70;;
1987;SDS011;12775;46.994;15.498;2024-01-11T12:25:41;15.08;;;12.72;;
1987;SDS011;12775;46.994;15.498;2024-01-11T12:28:09;15.74;;;12.42;;
1987;SDS011;12775;46.994;15.498;2024-01-11T12:30:36;18.56;;;12.46;;
1987;SDS011;12775;46.994;15.498;2024-01-11T12:33:03;15.58;;;12.08;;
1987;SDS011;12775;46.994;15.498;2024-01-11T12:35:31;14.70;;;11.58;;
1987;SDS011;12775;46.994;15.498;2024-01-11T12:37:59;14.62;;;11.82;;
1987;SDS011;12775;46.994;15.498;2024-01-11T12:40:26;18.84;;;12.64;;
1987;SDS011;12775;46.994;15.498;2024-01-11T12:42:53;13.92;;;11.58;;
1987;SDS011;12775;46.994;15.498;2024-01-11T12:45:20;18.32;;;12.30;;
1987;SDS011;12775;46.994;15.498;2024-01-11T12:47:48;16.56;;;12.60;;
1987;SDS011;12775;46.994;15.498;2024-01-11T12:50:15;14.88;;;12.60;;
1987;SDS011;12775;46.994;15.498;2024-01-11T12:52:42;13.06;;;11.44;;
1987;SDS011;12775;46.994;15.498;2024-01-11T12:55:17;19.06;;;12.38;;
1987;SDS011;12775;46.994;15.498;2024-01-11T12:58:02;17.26;;;12.10;;
1987;SDS011;12775;46.994;15.498;2024-01-11T13:00:19;14.18;;;12.44;;
1987;SDS011;12775;46.994;15.498;2024-01-11T13:02:47;13.92;;;12.44;;
1987;SDS011;12775;46.994;15.498;2024-01-11T13:05:13;15.16;;;11.58;;
1987;SDS011;12775;46.994;15.498;2024-01-11T13:07:44;20.52;;;12.36;;
1987;SDS011;12775;46.994;15.498;2024-01-11T13:10:10;16.22;;;12.24;;
1987;SDS011;12775;46.994;15.498;2024-01-11T13:12:37;15.94;;;10.72;;
1987;SDS011;12775;46.994;15.498;2024-01-11T13:15:04;14.86;;;12.72;;
1987;SDS011;12775;46.994;15.498;2024-01-11T13:17:31;13.94;;;12.10;;
1987;SDS011;12775;46.994;15.498;2024-01-11T13:19:57;17.38;;;12.48;;
1987;SDS011;12775;46.994;15.498;2024-01-11T13:22:24;14.20;;;11.78;;
1987;SDS011;12775;46.994;15.498;2024-01-11T13:24:50;15.54;;;11.98;;
1987;SDS011;12775;46.994;15.498;2024-01-11T13:27:17;14.90;;;11.44;;
1987;SDS011;12775;46.994;15.498;2024-01-11T13:29:44;16.36;;;11.56;;
1987;SDS011;12775;46.994;15.498;2024-01-11T13:32:10;14.04;;;11.54;;
1987;SDS011;12775;46.994;15.498;2024-01-11T13:34:38;15.54;;;11.64;;
1987;SDS011;12775;46.994;15.498;2024-01-11T13:37:05;11.66;;;10.46;;
1987;SDS011;12775;46.994;15.498;2024-01-11T13:39:32;15.56;;;12.18;;
1987;SDS011;12775;46.994;15.498;2024-01-11T13:42:00;13.06;;;11.40;;
1987;SDS011;12775;46.994;15.498;2024-01-11T13:44:27;12.90;;;10.90;;
1987;SDS011;12775;46.994;15.498;2024-01-11T13:46:54;17.34;;;11.38;;
1987;SDS011;12775;46.994;15.498;2024-01-11T13:49:22;14.44;;;10.36;;
1987;SDS011;12775;46.994;15.498;2024-01-11T13:51:48;17.78;;;9.54;;
1987;SDS011;12775;46.994;15.498;2024-01-11T13:54:15;13.72;;;10.32;;
1987;SDS011;12775;46.994;15.498;2024-01-11T13:56:42;15.72;;;10.64;;
1987;SDS011;12775;46.994;15.498;2024-01-11T13:59:08;13.68;;;11.54;;
1987;SDS011;12775;46.994;15.498;2024-01-11T14:01:36;14.48;;;12.12;;
1987;SDS011;12775;46.994;15.498;2024-01-11T14:04:03;15.50;;;12.90;;
1987;SDS011;12775;46.994;15.498;2024-01-11T14:06:31;12.66;;;10.44;;
1987;SDS011;12775;46.994;15.498;2024-01-11T14:08:59;18.34;;;11.50;;
1987;SDS011;12775;46.994;15.498;2024-01-11T14:11:26;14.34;;;10.36;;
1987;SDS011;12775;46.994;15.498;2024-01-11T14:13:54;14.36;;;11.88;;
1987;SDS011;12775;46.994;15.498;2024-01-11T14:16:22;13.98;;;10.88;;
1987;SDS011;12775;46.994;15.498;2024-01-11T14:18:49;20.20;;;11.84;;
1987;SDS011;12775;46.994;15.498;2024-01-11T14:21:16;15.78;;;11.92;;